Time;durP1;ratioP1;P1;durP2;ratioP2;P2;SDS_P1;SDS_P2;PMS_P1;PMS_P2;Temp;Humidity;BMP_temperature;BMP_pressure;BME280_temperature;BME280_humidity;BME280_pressure;Samples;Min_cycle;Max_cycle;Signal;HPM_P1;HPM_P2
2022/04/25 00:02:19;;;;;;;10.90;10.00;;;;;;;9.07;80.52;99201.44;109881;1258;21979;-77
2022/04/25 00:04:48;;;;;;;9.90;9.00;;;;;;;9.06;80.49;99206.12;109979;1258;23102;-77
2022/04/25 00:07:17;;;;;;;9.60;8.80;;;;;;;9.05;80.50;99206.90;109667;1261;23065;-77
2022/04/25 00:09:47;;;;;;;10.20;9.30;;;;;;;9.04;80.50;99205.02;109455;1263;21974;-78
2022/04/25 00:12:16;;;;;;;12.20;10.00;;;;;;;9.03;80.48;99203.50;109138;1266;23476;-79
2022/04/25 00:14:45;;;;;;;11.80;10.50;;;;;;;9.01;80.46;99205.02;109467;1261;21979;-78
2022/04/25 00:17:15;;;;;;;10.50;9.60;;;;;;;8.98;80.48;99206.00;109924;1258;22039;-78
2022/04/25 00:19:44;;;;;;;11.90;10.80;;;;;;;8.97;80.55;99204.16;109976;1260;23101;-78
2022/04/25 00:22:14;;;;;;;13.90;10.80;;;;;;;8.97;80.60;99201.54;110227;1258;21975;-78
2022/04/25 00:24:44;;;;;;;11.30;10.20;;;;;;;8.97;80.69;99203.76;109956;1260;21965;-78
2022/04/25 00:27:13;;;;;;;10.00;9.10;;;;;;;8.93;80.51;99207.86;110050;1252;22002;-78
2022/04/25 00:29:42;;;;;;;9.70;8.50;;;;;;;8.90;80.67;99209.40;110670;1252;23648;-78
2022/04/25 00:32:13;;;;;;;11.20;9.80;;;;;;;8.89;80.71;99208.83;110569;1251;22168;-78
2022/04/25 00:34:42;;;;;;;11.00;10.00;;;;;;;8.87;80.83;99212.23;110636;1252;21953;-78
2022/04/25 00:37:11;;;;;;;11.60;10.40;;;;;;;8.87;80.87;99210.73;110467;1254;22734;-78
2022/04/25 00:39:41;;;;;;;11.30;10.20;;;;;;;8.87;80.86;99211.59;110660;1252;23677;-78
2022/04/25 00:42:10;;;;;;;9.60;8.60;;;;;;;8.86;80.81;99214.46;110366;1254;23617;-77
2022/04/25 00:44:41;;;;;;;9.90;8.90;;;;;;;8.87;80.86;99212.23;110466;1252;23589;-78
2022/04/25 00:47:11;;;;;;;10.60;9.50;;;;;;;8.84;80.73;99209.25;110483;1253;21970;-78
2022/04/25 00:49:43;;;;;;;8.60;7.80;;;;;;;8.81;80.96;99210.02;110485;1255;23596;-78
2022/04/25 00:52:18;;;;;;;9.00;8.20;;;;;;;8.78;80.83;99211.23;110779;1252;21962;-78
2022/04/25 00:54:51;;;;;;;9.20;8.40;;;;;;;8.76;80.90;99208.86;110561;1252;21976;-78
2022/04/25 00:57:23;;;;;;;9.10;8.30;;;;;;;8.71;80.84;99203.14;110565;1252;23708;-78
2022/04/25 00:59:54;;;;;;;9.30;8.40;;;;;;;8.68;80.95;99199.95;110665;1252;22817;-78
2022/04/25 01:02:26;;;;;;;8.90;8.00;;;;;;;8.68;81.14;99197.75;110549;1252;23694;-79
2022/04/25 01:04:55;;;;;;;9.90;9.00;;;;;;;8.67;81.18;99197.81;110520;1255;22035;-78
2022/04/25 01:07:25;;;;;;;9.40;8.60;;;;;;;8.69;81.36;99202.11;110569;1253;21980;-79
2022/04/25 01:09:57;;;;;;;9.00;8.10;;;;;;;8.72;81.27;99201.64;110717;1252;23677;-78
2022/04/25 01:12:28;;;;;;;9.70;8.90;;;;;;;8.70;81.12;99203.38;110497;1252;22056;-78
2022/04/25 01:15:04;;;;;;;9.00;8.20;;;;;;;8.67;81.18;99200.41;110545;1253;21966;-79
2022/04/25 01:17:34;;;;;;;9.90;8.90;;;;;;;8.67;81.23;99202.19;110672;1251;21976;-78
2022/04/25 01:20:06;;;;;;;10.90;9.80;;;;;;;8.66;81.21;99201.08;110520;1252;21956;-78
2022/04/25 01:22:53;;;;;;;10.20;9.20;;;;;;;8.69;81.49;99199.70;110721;1251;22110;-78
2022/04/25 01:28:10;;;;;;;10.20;9.20;;;;;;;8.67;81.32;99192.68;110632;1252;23842;-79
2022/04/25 01:30:39;;;;;;;10.00;9.00;;;;;;;8.67;81.43;99190.32;110527;1252;23000;-78
2022/04/25 01:33:17;;;;;;;10.90;9.80;;;;;;;8.68;81.43;99191.75;110630;1252;24397;-78
2022/04/25 01:35:49;;;;;;;9.90;9.00;;;;;;;8.68;81.39;99189.65;110805;1251;23015;-78
2022/04/25 01:38:19;;;;;;;9.60;8.70;;;;;;;8.70;81.49;99191.00;110602;1253;21958;-78
2022/04/25 01:40:48;;;;;;;8.90;8.10;;;;;;;8.69;81.34;99188.45;110632;1253;23589;-79
2022/04/25 01:43:17;;;;;;;8.20;7.50;;;;;;;8.69;81.32;99190.31;110588;1253;23593;-81
2022/04/25 01:45:50;;;;;;;10.70;9.50;;;;;;;8.69;81.30;99187.88;109912;1261;22740;-80
2022/04/25 01:48:21;;;;;;;9.50;8.70;;;;;;;8.67;81.25;99188.70;110055;1258;21998;-80
2022/04/25 01:50:53;;;;;;;9.80;8.90;;;;;;;8.67;81.35;99187.77;109462;1264;22025;-79
2022/04/25 01:53:25;;;;;;;10.00;9.10;;;;;;;8.69;81.34;99190.75;109617;1262;23596;-79
2022/04/25 01:55:54;;;;;;;9.30;8.40;;;;;;;8.69;81.37;99190.06;109817;1262;21978;-79
2022/04/25 01:58:27;;;;;;;8.50;7.80;;;;;;;8.69;81.33;99188.84;109789;1262;22135;-79
2022/04/25 02:00:56;;;;;;;9.50;8.60;;;;;;;8.66;81.36;99191.56;109125;1267;21971;-79
2022/04/25 02:03:27;;;;;;;9.60;8.80;;;;;;;8.67;81.43;99196.65;109257;1264;22075;-79
2022/04/25 02:05:56;;;;;;;10.40;9.30;;;;;;;8.69;81.57;99196.34;109405;1264;23580;-80
2022/04/25 02:08:27;;;;;;;11.60;10.60;;;;;;;8.71;81.52;99198.63;109408;1259;22029;-81
2022/04/25 02:13:44;;;;;;;14.40;13.10;;;;;;;8.76;81.56;99203.11;110249;1258;22016;-78
2022/04/25 02:16:15;;;;;;;13.30;12.20;;;;;;;8.77;81.41;99203.16;109531;1264;22068;-78
2022/04/25 02:18:47;;;;;;;12.20;11.10;;;;;;;8.75;81.26;99206.17;109275;1264;23801;-80
2022/04/25 02:21:19;;;;;;;11.10;10.00;;;;;;;8.72;81.27;99204.44;109530;1264;21963;-80
2022/04/25 02:23:51;;;;;;;11.40;10.40;;;;;;;8.69;81.24;99206.02;109624;1264;23610;-78
2022/04/25 02:26:24;;;;;;;11.20;10.10;;;;;;;8.66;81.24;99203.92;109287;1264;21985;-78
2022/04/25 02:29:02;;;;;;;9.40;8.50;;;;;;;8.64;81.32;99201.63;109307;1265;22758;-79
2022/04/25 02:31:33;;;;;;;10.10;9.10;;;;;;;8.64;81.44;99198.31;108912;1266;23181;-78
2022/04/25 02:34:02;;;;;;;10.60;9.60;;;;;;;8.64;81.50;99197.45;109366;1263;22001;-79
2022/04/25 02:36:35;;;;;;;9.80;9.00;;;;;;;8.65;81.53;99199.60;109752;1256;22739;-79
2022/04/25 02:39:08;;;;;;;10.20;9.30;;;;;;;8.68;81.54;99199.73;110305;1258;22062;-79
2022/04/25 02:41:37;;;;;;;9.60;8.70;;;;;;;8.70;81.35;99201.37;110026;1258;22027;-78
2022/04/25 02:44:06;;;;;;;9.40;8.40;;;;;;;8.70;81.44;99202.02;110352;1258;22034;-78
2022/04/25 02:46:36;;;;;;;9.80;8.90;;;;;;;8.72;81.36;99202.17;110321;1252;21976;-77
2022/04/25 02:49:05;;;;;;;11.60;10.10;;;;;;;8.72;81.23;99203.55;110368;1255;23712;-78
2022/04/25 02:51:37;;;;;;;10.30;9.30;;;;;;;8.71;81.37;99201.05;110485;1257;23026;-79
2022/04/25 02:54:06;;;;;;;10.30;9.50;;;;;;;8.71;81.38;99199.61;110465;1256;21954;-79
2022/04/25 02:56:35;;;;;;;12.30;10.10;;;;;;;8.72;81.33;99201.33;110463;1257;23688;-79
2022/04/25 02:59:06;;;;;;;10.80;9.90;;;;;;;8.70;81.25;99199.06;110449;1257;22984;-77
2022/04/25 03:01:36;;;;;;;11.60;10.30;;;;;;;8.68;81.28;99198.44;110150;1256;21966;-76
2022/04/25 03:04:07;;;;;;;12.80;11.70;;;;;;;8.66;81.36;99202.43;110047;1257;23071;-78
2022/04/25 03:06:37;;;;;;;12.60;11.30;;;;;;;8.65;81.32;99205.25;110340;1254;22311;-79
2022/04/25 03:09:06;;;;;;;11.40;10.40;;;;;;;8.65;81.44;99203.30;110639;1254;23078;-79
2022/04/25 03:11:37;;;;;;;13.50;9.40;;;;;;;8.65;81.42;99207.91;110464;1255;23045;-78
2022/04/25 03:14:06;;;;;;;10.80;9.90;;;;;;;8.64;81.36;99205.05;110535;1255;22749;-78
2022/04/25 03:16:35;;;;;;;11.10;10.10;;;;;;;8.63;81.39;99209.76;110680;1253;23830;-77
2022/04/25 03:19:05;;;;;;;11.20;9.90;;;;;;;8.63;81.51;99214.05;110682;1252;21972;-78
2022/04/25 03:21:34;;;;;;;10.50;9.60;;;;;;;8.62;81.44;99218.24;110527;1255;21960;-77
2022/04/25 03:24:04;;;;;;;11.40;10.40;;;;;;;8.62;81.46;99217.23;110566;1252;23571;-78
2022/04/25 03:26:33;;;;;;;10.70;9.80;;;;;;;8.62;81.54;99216.48;110640;1253;22160;-79
2022/04/25 03:29:02;;;;;;;11.70;10.10;;;;;;;8.61;81.44;99215.11;110547;1254;21980;-78
2022/04/25 03:31:31;;;;;;;11.90;10.80;;;;;;;8.61;81.64;99217.05;110542;1254;21969;-79
2022/04/25 03:34:00;;;;;;;12.00;10.90;;;;;;;8.63;81.63;99216.64;110520;1253;23676;-78
2022/04/25 03:36:31;;;;;;;13.30;12.10;;;;;;;8.63;81.53;99223.04;110525;1253;22146;-78
2022/04/25 03:39:01;;;;;;;13.40;12.00;;;;;;;8.62;81.48;99225.52;110551;1253;23589;-79
2022/04/25 03:41:31;;;;;;;13.70;12.50;;;;;;;8.58;81.40;99225.90;110512;1253;23106;-78
2022/04/25 03:44:00;;;;;;;13.10;11.90;;;;;;;8.56;81.51;99225.81;110564;1253;22053;-78
2022/04/25 03:46:30;;;;;;;14.90;13.50;;;;;;;8.56;81.64;99226.42;110891;1251;22121;-77
2022/04/25 03:49:00;;;;;;;19.10;17.20;;;;;;;8.58;81.85;99232.08;110189;1256;21965;-77
2022/04/25 03:51:29;;;;;;;15.10;13.50;;;;;;;8.60;81.81;99233.61;110187;1256;21952;-78
2022/04/25 03:53:59;;;;;;;14.60;13.10;;;;;;;8.61;81.77;99240.70;109563;1264;23010;-77
2022/04/25 03:59:16;;;;;;;14.40;13.10;;;;;;;8.65;82.03;99243.52;108885;1268;21990;-78
2022/04/25 04:01:45;;;;;;;14.40;13.10;;;;;;;8.67;81.97;99244.35;108824;1267;23603;-78
2022/04/25 04:04:15;;;;;;;15.10;13.90;;;;;;;8.67;81.82;99247.27;108889;1268;23054;-77
2022/04/25 04:06:44;;;;;;;15.30;14.00;;;;;;;8.69;81.98;99250.83;108984;1264;22087;-78
2022/04/25 04:12:05;;;;;;;13.80;12.70;;;;;;;8.66;81.83;99258.64;109615;1259;23037;-79
2022/04/25 04:14:34;;;;;;;15.40;14.10;;;;;;;8.64;81.85;99262.55;110348;1253;22164;-78
2022/04/25 04:17:07;;;;;;;15.60;14.30;;;;;;;8.65;82.07;99267.54;110461;1253;21979;-79
2022/04/25 04:19:39;;;;;;;17.00;15.60;;;;;;;8.65;81.97;99272.28;110559;1253;22424;-79
2022/04/25 04:22:08;;;;;;;16.30;15.00;;;;;;;8.65;81.95;99278.96;110530;1253;21956;-79
2022/04/25 04:24:44;;;;;;;16.40;15.00;;;;;;;8.62;81.79;99280.24;110575;1251;23670;-79
2022/04/25 04:27:14;;;;;;;18.10;16.60;;;;;;;8.58;81.82;99283.23;110603;1252;22416;-78
2022/04/25 04:29:46;;;;;;;17.40;16.00;;;;;;;8.59;82.08;99285.24;110652;1253;21954;-80
2022/04/25 04:32:15;;;;;;;17.30;15.80;;;;;;;8.63;82.13;99289.91;110570;1253;21960;-78
2022/04/25 04:34:47;;;;;;;17.80;16.30;;;;;;;8.64;82.08;99291.70;110623;1251;23044;-77
2022/04/25 04:37:16;;;;;;;15.60;14.30;;;;;;;8.63;81.95;99294.48;110585;1255;23034;-77
2022/04/25 04:39:45;;;;;;;14.70;13.40;;;;;;;8.63;82.06;99295.73;110600;1252;21960;-77
2022/04/25 04:42:17;;;;;;;16.10;14.70;;;;;;;8.62;81.96;99296.70;110527;1255;21952;-77
2022/04/25 04:44:47;;;;;;;17.60;15.80;;;;;;;8.60;81.87;99300.84;110482;1255;21982;-78
2022/04/25 04:47:16;;;;;;;16.00;14.60;;;;;;;8.59;81.98;99305.85;109974;1260;23172;-76
2022/04/25 04:49:47;;;;;;;17.50;16.00;;;;;;;8.56;81.86;99305.85;109653;1262;23874;-77
2022/04/25 04:52:17;;;;;;;16.00;14.60;;;;;;;8.55;81.80;99305.05;109986;1261;22079;-77
2022/04/25 04:54:46;;;;;;;16.10;14.60;;;;;;;8.51;81.63;99302.24;109425;1265;22033;-77
2022/04/25 04:57:18;;;;;;;15.00;13.50;;;;;;;8.46;81.61;99301.49;109542;1264;21973;-77
2022/04/25 04:59:47;;;;;;;15.60;14.10;;;;;;;8.43;81.65;99299.48;109152;1264;23602;-77
2022/04/25 05:02:17;;;;;;;15.90;14.30;;;;;;;8.39;81.68;99301.17;109453;1263;22037;-76
2022/04/25 05:04:49;;;;;;;15.60;14.00;;;;;;;8.33;81.63;99304.13;109722;1258;22841;-77
2022/04/25 05:07:19;;;;;;;14.70;13.30;;;;;;;8.30;81.81;99309.22;109593;1264;21973;-77
2022/04/25 05:09:48;;;;;;;15.70;14.10;;;;;;;8.27;81.75;99311.64;109646;1263;21982;-77
2022/04/25 05:12:17;;;;;;;14.80;13.30;;;;;;;8.25;81.69;99319.09;109887;1262;23013;-79
2022/04/25 05:14:47;;;;;;;15.60;14.00;;;;;;;8.23;81.79;99324.04;109888;1262;21960;-75
2022/04/25 05:17:16;;;;;;;15.60;14.10;;;;;;;8.22;81.76;99320.70;109879;1262;23609;-76
2022/04/25 05:19:45;;;;;;;17.80;14.60;;;;;;;8.18;81.65;99324.45;110148;1256;21967;-76
2022/04/25 05:22:14;;;;;;;16.30;14.60;;;;;;;8.15;81.68;99326.55;110386;1256;21967;-76
2022/04/25 05:24:44;;;;;;;15.70;14.20;;;;;;;8.14;81.76;99329.98;110552;1254;23036;-76
2022/04/25 05:27:13;;;;;;;15.00;13.80;;;;;;;8.13;81.77;99335.52;110787;1251;23039;-76
2022/04/25 05:29:44;;;;;;;16.70;15.10;;;;;;;8.12;81.90;99337.14;110912;1251;22001;-77
2022/04/25 05:32:13;;;;;;;15.40;13.90;;;;;;;8.12;81.91;99338.35;110613;1253;22720;-77
2022/04/25 05:34:42;;;;;;;16.20;14.70;;;;;;;8.12;81.85;99339.73;110920;1251;22716;-76
2022/04/25 05:37:11;;;;;;;16.20;14.70;;;;;;;8.10;81.88;99339.29;110596;1253;23036;-76
2022/04/25 05:39:40;;;;;;;15.00;13.50;;;;;;;8.08;81.79;99344.98;110690;1251;21967;-76
2022/04/25 05:42:11;;;;;;;15.60;14.10;;;;;;;8.04;81.77;99348.66;110738;1252;21969;-76
2022/04/25 05:44:42;;;;;;;15.00;13.50;;;;;;;8.02;81.74;99353.84;110699;1252;21963;-76
2022/04/25 05:47:15;;;;;;;15.60;14.10;;;;;;;8.00;81.71;99355.45;110012;1258;21978;-78
2022/04/25 05:52:44;;;;;;;15.00;13.60;;;;;;;7.99;81.82;99355.58;110266;1257;22281;-78
2022/04/25 05:55:15;;;;;;;15.40;13.80;;;;;;;7.96;81.75;99359.02;109297;1264;22100;-78
2022/04/25 05:57:47;;;;;;;15.80;14.20;;;;;;;7.96;81.79;99360.46;109563;1263;22057;-78
2022/04/25 06:00:19;;;;;;;14.00;12.50;;;;;;;7.95;81.89;99367.23;109301;1263;24306;-77
2022/04/25 06:02:51;;;;;;;16.80;12.80;;;;;;;7.94;81.96;99369.14;109133;1267;21972;-78
2022/04/25 06:05:20;;;;;;;13.30;12.10;;;;;;;7.93;81.84;99371.86;109451;1261;21965;-77
2022/04/25 06:07:50;;;;;;;15.40;12.30;;;;;;;7.91;81.84;99371.77;109230;1267;23712;-78
2022/04/25 06:10:30;;;;;;;13.30;12.20;;;;;;;7.90;81.94;99375.69;109082;1267;21985;-78
2022/04/25 06:12:59;;;;;;;14.80;13.20;;;;;;;7.89;81.93;99375.83;109312;1263;22004;-78
2022/04/25 06:15:30;;;;;;;14.40;13.00;;;;;;;7.88;82.00;99373.81;109529;1264;22089;-78
2022/04/25 06:17:59;;;;;;;13.60;12.20;;;;;;;7.88;82.02;99377.83;109544;1263;23676;-78
2022/04/25 06:20:30;;;;;;;12.70;11.50;;;;;;;7.87;81.96;99382.63;109339;1264;21983;-77
2022/04/25 06:23:03;;;;;;;13.60;12.20;;;;;;;7.87;81.93;99382.34;108874;1267;22562;-78
2022/04/25 06:25:32;;;;;;;12.90;11.70;;;;;;;7.87;81.89;99383.27;109198;1263;21957;-77
2022/04/25 06:28:04;;;;;;;12.40;11.20;;;;;;;7.85;81.82;99382.71;109310;1264;21991;-78
2022/04/25 06:30:35;;;;;;;13.40;12.00;;;;;;;7.82;81.76;99386.70;109497;1264;22165;-78
2022/04/25 06:33:07;;;;;;;13.60;11.40;;;;;;;7.78;81.72;99390.66;109261;1264;22881;-77
2022/04/25 06:35:36;;;;;;;14.20;12.50;;;;;;;7.76;81.89;99391.09;109423;1264;21972;-77
2022/04/25 06:38:05;;;;;;;15.20;13.50;;;;;;;7.77;82.02;99390.30;109601;1263;23011;-79
2022/04/25 06:40:35;;;;;;;14.50;12.90;;;;;;;7.78;82.04;99392.63;109261;1261;23084;-79
2022/04/25 06:43:05;;;;;;;15.20;13.50;;;;;;;7.81;82.15;99390.91;109210;1267;21980;-77
2022/04/25 06:45:35;;;;;;;13.50;11.90;;;;;;;7.85;82.14;99396.45;109052;1263;23096;-77
2022/04/25 06:48:07;;;;;;;14.70;12.20;;;;;;;7.86;81.98;99397.41;108958;1267;179649;-78
2022/04/25 06:50:36;;;;;;;;;;;;;;;7.85;81.97;99394.16;108848;1273;23068;-78
2022/04/25 06:53:05;;;;;;;13.30;11.90;;;;;;;7.77;82.04;99397.13;108789;1270;23154;-77
2022/04/25 06:55:34;;;;;;;17.10;13.70;;;;;;;7.73;82.06;99395.63;108754;1273;23619;-78
2022/04/25 06:58:06;;;;;;;15.20;13.90;;;;;;;7.73;82.04;99398.95;108669;1273;22979;-77
2022/04/25 07:00:35;;;;;;;17.00;12.20;;;;;;;7.76;82.23;99395.88;108814;1271;22937;-78
2022/04/25 07:03:05;;;;;;;16.10;13.40;;;;;;;7.79;82.26;99398.69;108394;1276;22993;-78
2022/04/25 07:05:37;;;;;;;15.70;13.80;;;;;;;7.82;82.27;99402.35;108496;1273;22992;-75
2022/04/25 07:08:07;;;;;;;14.30;12.80;;;;;;;7.87;82.27;99403.09;109364;1259;21968;-77
2022/04/25 07:10:39;;;;;;;13.70;12.20;;;;;;;7.86;82.15;99408.05;110008;1259;23747;-77
2022/04/25 07:13:11;;;;;;;18.30;12.90;;;;;;;7.84;81.92;99409.84;110199;1259;21968;-77
2022/04/25 07:15:40;;;;;;;13.20;11.90;;;;;;;7.84;81.94;99409.70;109457;1264;22040;-77
2022/04/25 07:18:15;;;;;;;13.00;11.80;;;;;;;7.82;81.88;99413.20;109426;1264;23845;-77
2022/04/25 07:20:44;;;;;;;14.50;12.40;;;;;;;7.82;81.81;99415.19;109330;1258;23738;-78
2022/04/25 07:28:53;;;;;;;13.80;11.70;;;;;;;7.87;81.98;99416.13;109670;1258;21936;-79
2022/04/25 07:31:22;;;;;;;14.30;12.70;;;;;;;7.89;81.95;99421.88;109916;1257;22257;-78
2022/04/25 07:33:56;;;;;;;17.70;14.30;;;;;;;7.92;81.88;99427.42;109605;1257;23685;-77
2022/04/25 07:36:26;;;;;;;13.60;12.20;;;;;;;7.92;81.78;99431.39;110471;1258;23799;-80
2022/04/25 07:38:56;;;;;;;15.70;14.10;;;;;;;7.93;81.73;99438.48;110190;1256;21932;-78
2022/04/25 07:41:27;;;;;;;18.90;16.20;;;;;;;7.92;81.61;99437.73;110288;1257;21975;-79
2022/04/25 07:43:58;;;;;;;14.60;13.10;;;;;;;7.93;81.56;99442.63;110022;1256;23738;-78
2022/04/25 07:46:28;;;;;;;16.80;13.70;;;;;;;7.92;81.53;99446.16;110173;1257;22318;-78
2022/04/25 07:48:58;;;;;;;14.70;13.20;;;;;;;7.92;81.43;99446.84;110406;1256;23636;-77
2022/04/25 07:51:30;;;;;;;15.50;14.00;;;;;;;7.93;81.58;99449.13;110374;1253;21960;-77
2022/04/25 07:54:04;;;;;;;16.10;13.60;;;;;;;7.96;81.64;99451.98;110807;1252;23570;-77
2022/04/25 07:56:33;;;;;;;15.80;14.00;;;;;;;7.98;81.53;99452.13;110552;1254;22040;-77
2022/04/25 07:59:05;;;;;;;14.80;13.30;;;;;;;7.99;81.54;99457.23;110627;1253;23016;-76
2022/04/25 08:01:36;;;;;;;16.30;14.70;;;;;;;7.99;81.41;99460.41;110525;1252;23496;-76
2022/04/25 08:04:05;;;;;;;16.40;14.70;;;;;;;7.99;81.46;99460.73;110574;1254;23146;-77
2022/04/25 08:06:37;;;;;;;19.00;15.70;;;;;;;8.03;81.67;99460.10;110571;1253;22220;-76
2022/04/25 08:09:09;;;;;;;18.20;16.50;;;;;;;8.08;81.70;99461.17;110275;1257;23653;-77
2022/04/25 08:11:38;;;;;;;;;;;;;;;8.14;81.70;99465.27;110215;1255;23839;-77
2022/04/25 08:19:43;;;;;;;16.20;14.40;;;;;;;8.21;81.82;99470.58;110360;1257;22054;-76
2022/04/25 08:22:12;;;;;;;17.70;14.10;;;;;;;8.29;81.95;99475.63;110021;1259;21974;-77
2022/04/25 08:24:41;;;;;;;18.00;14.40;;;;;;;8.37;81.83;99478.09;109631;1263;23597;-76
2022/04/25 08:27:10;;;;;;;15.10;13.00;;;;;;;8.45;81.84;99478.21;109861;1257;22264;-76
2022/04/25 08:29:39;;;;;;;15.10;13.50;;;;;;;8.51;81.56;99483.38;109614;1265;23607;-76
2022/04/25 08:32:08;;;;;;;16.00;14.40;;;;;;;8.55;81.43;99487.26;109659;1263;21999;-76
2022/04/25 08:34:40;;;;;;;14.90;13.20;;;;;;;8.60;81.30;99491.27;109827;1262;23133;-75
2022/04/25 08:37:16;;;;;;;17.00;14.90;;;;;;;8.63;81.12;99496.55;109086;1267;22439;-76
2022/04/25 08:39:47;;;;;;;16.50;14.70;;;;;;;8.63;80.68;99497.94;108881;1270;23589;-76
2022/04/25 08:42:26;;;;;;;14.80;12.60;;;;;;;8.61;80.62;99500.91;109005;1267;23094;-76
2022/04/25 08:45:28;;;;;;;19.00;13.40;;;;;;;8.62;80.83;99502.21;109135;1267;21979;-77
2022/04/25 08:47:59;;;;;;;15.50;12.50;;;;;;;8.62;80.56;99509.35;109006;1267;21980;-76
2022/04/25 08:50:30;;;;;;;14.20;12.50;;;;;;;8.62;80.44;99510.80;108936;1267;22160;-76
2022/04/25 08:52:59;;;;;;;13.60;12.30;;;;;;;8.63;80.36;99516.39;109223;1267;22017;-76
2022/04/25 08:55:30;;;;;;;14.10;12.60;;;;;;;8.65;80.36;99519.44;109127;1263;23677;-77
2022/04/25 08:58:00;;;;;;;14.80;12.90;;;;;;;8.69;80.37;99521.25;109790;1260;21987;-76
2022/04/25 09:00:29;;;;;;;13.80;12.40;;;;;;;8.71;80.22;99525.02;110195;1260;23719;-76
2022/04/25 09:02:59;;;;;;;12.50;10.90;;;;;;;8.74;80.21;99528.38;110015;1258;23048;-75
2022/04/25 09:05:29;;;;;;;15.30;13.70;;;;;;;8.75;79.88;99529.33;109744;1260;22737;-75
2022/04/25 09:07:59;;;;;;;13.70;12.30;;;;;;;8.74;79.78;99533.53;110020;1258;21975;-76
2022/04/25 09:10:30;;;;;;;14.20;12.80;;;;;;;8.77;79.87;99534.59;110304;1258;23167;-76
2022/04/25 09:13:00;;;;;;;12.80;11.60;;;;;;;8.78;79.75;99535.66;110371;1257;22425;-76
2022/04/25 09:15:29;;;;;;;15.00;13.50;;;;;;;8.79;79.53;99537.35;110043;1258;21984;-76
2022/04/25 09:17:59;;;;;;;15.30;13.40;;;;;;;8.79;79.54;99538.59;110062;1259;23728;-74
2022/04/25 09:20:31;;;;;;;14.40;12.80;;;;;;;8.81;79.63;99543.17;110003;1257;21983;-77
2022/04/25 09:23:00;;;;;;;15.30;13.70;;;;;;;8.83;79.42;99542.64;110191;1254;21963;-76
2022/04/25 09:25:29;;;;;;;14.90;13.50;;;;;;;8.83;79.40;99547.16;110528;1253;21957;-76
2022/04/25 09:28:15;;;;;;;15.20;13.70;;;;;;;8.85;79.36;99550.43;110696;1253;23741;-76
2022/04/25 09:30:59;;;;;;;18.90;15.60;;;;;;;8.90;79.51;99553.38;110727;1253;23501;-76
2022/04/25 09:33:30;;;;;;;15.90;13.90;;;;;;;8.96;79.39;99556.84;110511;1252;21996;-76
2022/04/25 09:35:59;;;;;;;17.10;15.30;;;;;;;8.99;79.26;99559.77;110693;1254;23050;-76
2022/04/25 09:38:34;;;;;;;15.20;13.60;;;;;;;9.02;79.20;99565.41;110661;1252;23583;-76
2022/04/25 09:41:13;;;;;;;18.30;15.00;;;;;;;9.04;78.93;99565.23;110020;1260;21986;-75
2022/04/25 09:43:44;;;;;;;18.10;16.30;;;;;;;9.03;78.78;99568.70;110179;1260;23676;-75
2022/04/25 09:46:17;;;;;;;17.60;15.80;;;;;;;9.05;78.99;99574.42;110268;1258;22630;-75
2022/04/25 09:49:05;;;;;;;14.90;13.50;;;;;;;9.10;78.94;99577.02;110015;1258;21989;-76
2022/04/25 09:51:37;;;;;;;14.70;13.20;;;;;;;9.12;78.75;99581.80;109223;1267;22046;-75
2022/04/25 09:54:07;;;;;;;14.50;12.90;;;;;;;9.12;78.62;99582.86;109332;1265;21977;-76
2022/04/25 09:56:36;;;;;;;17.80;14.00;;;;;;;9.12;78.43;99581.15;109577;1263;23691;-76
2022/04/25 09:59:06;;;;;;;15.70;14.10;;;;;;;9.12;78.52;99581.43;109513;1259;21987;-75
2022/04/25 10:01:43;;;;;;;15.40;13.90;;;;;;;9.16;78.54;99581.91;110188;1260;23069;-75
2022/04/25 10:04:32;;;;;;;18.00;15.10;;;;;;;9.22;78.74;99582.09;109551;1263;22055;-76
2022/04/25 10:07:06;;;;;;;14.30;12.20;;;;;;;9.27;78.55;99581.48;109533;1263;22037;-74
2022/04/25 10:09:36;;;;;;;17.90;14.50;;;;;;;9.31;78.50;99583.80;109447;1261;22075;-75
2022/04/25 10:12:06;;;;;;;15.60;13.00;;;;;;;9.36;78.40;99589.08;109984;1260;22078;-75
2022/04/25 10:14:36;;;;;;;15.10;13.00;;;;;;;9.39;78.24;99595.67;110042;1260;23040;-75
2022/04/25 10:17:06;;;;;;;16.00;13.10;;;;;;;9.47;78.32;99596.06;109935;1261;24218;-76
2022/04/25 10:19:38;;;;;;;15.90;14.00;;;;;;;9.52;78.06;99597.40;109544;1261;23608;-73
2022/04/25 10:22:09;;;;;;;18.30;14.00;;;;;;;9.56;77.80;99600.27;110120;1255;22025;-76
2022/04/25 10:24:39;;;;;;;19.10;17.00;;;;;;;9.58;77.59;99601.60;110675;1253;22017;-77
2022/04/25 10:27:13;;;;;;;20.40;17.70;;;;;;;9.58;77.20;99604.48;110513;1252;22001;-75
2022/04/25 10:29:52;;;;;;;17.60;13.30;;;;;;;9.59;77.09;99610.48;110582;1254;21986;-75
2022/04/25 10:32:23;;;;;;;17.20;14.20;;;;;;;9.59;77.04;99609.17;110653;1253;23061;-76
2022/04/25 10:34:59;;;;;;;15.50;13.20;;;;;;;9.61;76.98;99611.22;110685;1252;23660;-75
2022/04/25 10:37:34;;;;;;;17.70;12.30;;;;;;;9.65;76.82;99613.98;110491;1254;22987;-75
2022/04/25 10:40:11;;;;;;;14.10;12.40;;;;;;;9.69;76.89;99617.21;110363;1256;25094;-77
2022/04/25 10:46:02;;;;;;;13.80;12.30;;;;;;;9.74;76.69;99621.05;110026;1260;23743;-76
2022/04/25 10:49:11;;;;;;;15.00;12.00;;;;;;;9.76;76.70;99620.89;109565;1265;22066;-76
2022/04/25 10:51:41;;;;;;;14.10;12.60;;;;;;;9.81;76.65;99624.05;109850;1264;23597;-75
2022/04/25 10:54:12;;;;;;;15.90;14.20;;;;;;;9.86;76.45;99627.78;109363;1262;21994;-75
2022/04/25 10:57:06;;;;;;;16.00;14.40;;;;;;;9.92;76.38;99631.52;109788;1264;23079;-75
2022/04/25 10:59:37;;;;;;;22.00;16.30;;;;;;;10.00;76.25;99633.48;109945;1260;23720;-76
2022/04/25 11:02:28;;;;;;;17.80;15.90;;;;;;;10.03;75.93;99636.73;110288;1255;22739;-76
2022/04/25 11:05:11;;;;;;;17.80;15.40;;;;;;;10.02;75.47;99641.56;110463;1257;22283;-75
2022/04/25 11:07:45;;;;;;;20.90;15.60;;;;;;;10.00;75.23;99641.87;110706;1254;22838;-75
2022/04/25 11:11:18;;;;;;;15.80;14.20;;;;;;;9.97;75.12;99641.94;110678;1253;23777;-76
2022/04/25 11:13:50;;;;;;;16.60;14.90;;;;;;;9.98;75.46;99649.50;110777;1254;21969;-75
2022/04/25 11:16:22;;;;;;;;;;;;;;;10.03;75.58;99653.11;110694;1253;21970;-75
2022/04/25 11:19:46;;;;;;;;;;;;;;;10.03;75.86;99657.30;110614;1254;22012;-75
2022/04/25 11:22:40;;;;;;;14.40;13.00;;;;;;;9.98;75.73;99659.52;110279;1257;23044;-76
2022/04/25 11:25:25;;;;;;;15.80;14.30;;;;;;;9.96;75.53;99660.61;110287;1260;24308;-75
2022/04/25 11:28:12;;;;;;;23.60;21.30;;;;;;;10.00;75.55;99665.11;109905;1263;22018;-76
2022/04/25 11:30:42;;;;;;;21.50;19.40;;;;;;;10.06;75.68;99670.16;109559;1265;22260;-76
2022/04/25 11:33:12;;;;;;;23.20;21.00;;;;;;;10.09;75.52;99671.05;109727;1263;23677;-76
2022/04/25 11:35:43;;;;;;;23.40;21.20;;;;;;;10.16;75.56;99678.51;109635;1263;21981;-76
2022/04/25 11:39:50;;;;;;;22.70;20.50;;;;;;;10.21;75.51;99677.89;108991;1270;23040;-76
2022/04/25 11:41:02;;;;;;;22.00;19.50;;;;;;;10.26;75.45;99680.37;109076;1268;21999;-76
2022/04/25 11:43:39;;;;;;;18.10;16.30;;;;;;;10.31;75.48;99681.60;109100;1267;21981;-75
2022/04/25 11:46:08;;;;;;;17.40;15.80;;;;;;;10.37;75.26;99685.08;109152;1264;23699;-75
2022/04/25 11:48:38;;;;;;;18.10;15.60;;;;;;;10.43;75.33;99690.57;109304;1264;23113;-75
2022/04/25 11:51:06;;;;;;;18.00;16.20;;;;;;;10.53;75.36;99690.45;109271;1265;23571;-76
2022/04/25 11:53:37;;;;;;;18.50;16.80;;;;;;;10.59;74.90;99697.69;109816;1260;23687;-75
2022/04/25 11:56:16;;;;;;;22.10;20.10;;;;;;;10.60;74.49;99696.48;110090;1254;21973;-75
2022/04/25 11:58:45;;;;;;;22.60;20.40;;;;;;;10.61;74.20;99698.48;110580;1254;24139;-75
2022/04/25 12:01:50;;;;;;;26.60;24.20;;;;;;;10.66;74.40;99698.13;110552;1254;21972;-75
2022/04/25 12:04:23;;;;;;;24.40;22.40;;;;;;;10.72;74.28;99701.39;110515;1254;22344;-76
2022/04/25 12:07:02;;;;;;;20.50;18.50;;;;;;;10.74;73.93;99701.12;110470;1256;21967;-75
2022/04/25 12:18:28;;;;;;;19.90;18.00;;;;;;;10.82;73.34;99707.43;110519;1254;22092;-75
2022/04/25 12:21:12;;;;;;;15.90;14.50;;;;;;;10.87;73.20;99712.98;110482;1254;23713;-75